sensor_id;sensor_type;location;lat;lon;timestamp;P1;durP1;ratioP1;P2;durP2;ratioP2
10471;SDS011;5283;48.876;8.962;2023-02-10T00:01:02;40.03;;;20.13;;
10471;SDS011;5283;48.876;8.962;2023-02-10T00:03:30;41.50;;;21.00;;
10471;SDS011;5283;48.876;8.962;2023-02-10T00:05:57;42.33;;;20.73;;
10471;SDS011;5283;48.876;8.962;2023-02-10T00:08:24;40.03;;;21.93;;
10471;SDS011;5283;48.876;8.962;2023-02-10T00:10:51;41.73;;;20.93;;
10471;SDS011;5283;48.876;8.962;2023-02-10T00:13:22;43.23;;;22.57;;
10471;SDS011;5283;48.876;8.962;2023-02-10T00:15:48;44.67;;;22.67;;
10471;SDS011;5283;48.876;8.962;2023-02-10T00:18:15;42.87;;;23.67;;
10471;SDS011;5283;48.876;8.962;2023-02-10T00:20:42;45.80;;;23.83;;
10471;SDS011;5283;48.876;8.962;2023-02-10T00:23:09;54.20;;;25.90;;
10471;SDS011;5283;48.876;8.962;2023-02-10T00:25:35;47.77;;;22.50;;
10471;SDS011;5283;48.876;8.962;2023-02-10T00:28:02;48.10;;;23.40;;
10471;SDS011;5283;48.876;8.962;2023-02-10T00:30:30;47.30;;;22.80;;
10471;SDS011;5283;48.876;8.962;2023-02-10T00:32:57;50.17;;;23.43;;
10471;SDS011;5283;48.876;8.962;2023-02-10T00:35:23;55.03;;;26.37;;
10471;SDS011;5283;48.876;8.962;2023-02-10T00:37:50;50.60;;;25.97;;
10471;SDS011;5283;48.876;8.962;2023-02-10T00:40:17;50.80;;;26.07;;
10471;SDS011;5283;48.876;8.962;2023-02-10T00:42:59;53.20;;;25.77;;
10471;SDS011;5283;48.876;8.962;2023-02-10T00:45:26;46.50;;;24.40;;
10471;SDS011;5283;48.876;8.962;2023-02-10T00:47:52;50.40;;;24.47;;
10471;SDS011;5283;48.876;8.962;2023-02-10T00:50:20;50.40;;;24.53;;
10471;SDS011;5283;48.876;8.962;2023-02-10T00:52:46;51.37;;;24.33;;
10471;SDS011;5283;48.876;8.962;2023-02-10T00:55:13;44.63;;;23.60;;
10471;SDS011;5283;48.876;8.962;2023-02-10T00:57:39;43.20;;;22.97;;
10471;SDS011;5283;48.876;8.962;2023-02-10T01:00:06;48.10;;;24.17;;
10471;SDS011;5283;48.876;8.962;2023-02-10T01:02:33;46.97;;;24.70;;
10471;SDS011;5283;48.876;8.962;2023-02-10T01:05:00;47.60;;;25.50;;
10471;SDS011;5283;48.876;8.962;2023-02-10T01:07:29;43.53;;;25.67;;
10471;SDS011;5283;48.876;8.962;2023-02-10T01:09:55;49.77;;;26.83;;
10471;SDS011;5283;48.876;8.962;2023-02-10T01:12:22;51.43;;;26.87;;
10471;SDS011;5283;48.876;8.962;2023-02-10T01:14:49;51.37;;;26.43;;
10471;SDS011;5283;48.876;8.962;2023-02-10T01:17:16;52.37;;;28.17;;
10471;SDS011;5283;48.876;8.962;2023-02-10T01:19:42;53.50;;;27.60;;
10471;SDS011;5283;48.876;8.962;2023-02-10T01:22:09;51.47;;;27.73;;
10471;SDS011;5283;48.876;8.962;2023-02-10T01:24:35;54.73;;;27.63;;
10471;SDS011;5283;48.876;8.962;2023-02-10T01:27:02;53.57;;;27.90;;
10471;SDS011;5283;48.876;8.962;2023-02-10T01:29:29;58.93;;;28.17;;
10471;SDS011;5283;48.876;8.962;2023-02-10T01:31:55;50.67;;;26.30;;
10471;SDS011;5283;48.876;8.962;2023-02-10T01:34:22;52.17;;;28.33;;
10471;SDS011;5283;48.876;8.962;2023-02-10T01:36:49;51.20;;;26.73;;
10471;SDS011;5283;48.876;8.962;2023-02-10T01:39:16;51.87;;;26.23;;
10471;SDS011;5283;48.876;8.962;2023-02-10T01:41:43;47.97;;;26.90;;
10471;SDS011;5283;48.876;8.962;2023-02-10T01:46:46;43.27;;;25.77;;
10471;SDS011;5283;48.876;8.962;2023-02-10T01:49:17;46.77;;;26.17;;
10471;SDS011;5283;48.876;8.962;2023-02-10T01:51:57;45.63;;;24.83;;
10471;SDS011;5283;48.876;8.962;2023-02-10T01:54:35;45.17;;;23.43;;
10471;SDS011;5283;48.876;8.962;2023-02-10T01:57:08;44.83;;;22.83;;
10471;SDS011;5283;48.876;8.962;2023-02-10T01:59:37;46.53;;;23.23;;
10471;SDS011;5283;48.876;8.962;2023-02-10T02:02:05;44.57;;;23.87;;
10471;SDS011;5283;48.876;8.962;2023-02-10T02:04:37;42.30;;;25.07;;
10471;SDS011;5283;48.876;8.962;2023-02-10T02:07:17;52.27;;;24.73;;
10471;SDS011;5283;48.876;8.962;2023-02-10T02:09:46;42.27;;;23.13;;
10471;SDS011;5283;48.876;8.962;2023-02-10T02:12:27;44.30;;;23.37;;
10471;SDS011;5283;48.876;8.962;2023-02-10T02:17:45;43.70;;;22.60;;
10471;SDS011;5283;48.876;8.962;2023-02-10T02:29:17;46.23;;;23.53;;
10471;SDS011;5283;48.876;8.962;2023-02-10T02:32:05;43.43;;;24.30;;
10471;SDS011;5283;48.876;8.962;2023-02-10T02:34:51;45.50;;;24.77;;
10471;SDS011;5283;48.876;8.962;2023-02-10T02:37:26;44.47;;;23.03;;
10471;SDS011;5283;48.876;8.962;2023-02-10T02:39:59;46.73;;;24.40;;
10471;SDS011;5283;48.876;8.962;2023-02-10T02:42:29;48.47;;;24.47;;
10471;SDS011;5283;48.876;8.962;2023-02-10T02:44:58;38.17;;;22.10;;
10471;SDS011;5283;48.876;8.962;2023-02-10T02:53:03;42.37;;;23.20;;
10471;SDS011;5283;48.876;8.962;2023-02-10T02:58:38;45.57;;;23.47;;
10471;SDS011;5283;48.876;8.962;2023-02-10T03:01:19;43.37;;;22.70;;
10471;SDS011;5283;48.876;8.962;2023-02-10T03:03:54;43.93;;;24.70;;
10471;SDS011;5283;48.876;8.962;2023-02-10T03:06:23;46.50;;;24.90;;
10471;SDS011;5283;48.876;8.962;2023-02-10T03:08:50;45.60;;;23.77;;
10471;SDS011;5283;48.876;8.962;2023-02-10T03:11:18;51.67;;;25.37;;
10471;SDS011;5283;48.876;8.962;2023-02-10T03:13:44;47.63;;;25.50;;
10471;SDS011;5283;48.876;8.962;2023-02-10T03:16:11;47.83;;;25.13;;
10471;SDS011;5283;48.876;8.962;2023-02-10T03:18:38;50.30;;;25.30;;
10471;SDS011;5283;48.876;8.962;2023-02-10T03:21:04;56.37;;;27.50;;
10471;SDS011;5283;48.876;8.962;2023-02-10T03:23:32;51.87;;;25.83;;
10471;SDS011;5283;48.876;8.962;2023-02-10T03:25:59;53.13;;;27.77;;
10471;SDS011;5283;48.876;8.962;2023-02-10T03:28:26;63.17;;;28.27;;
10471;SDS011;5283;48.876;8.962;2023-02-10T03:30:53;53.93;;;27.03;;
10471;SDS011;5283;48.876;8.962;2023-02-10T03:33:21;54.77;;;26.43;;
10471;SDS011;5283;48.876;8.962;2023-02-10T03:35:48;52.97;;;26.43;;
10471;SDS011;5283;48.876;8.962;2023-02-10T03:38:19;47.33;;;25.13;;
10471;SDS011;5283;48.876;8.962;2023-02-10T03:40:48;39.50;;;22.63;;
10471;SDS011;5283;48.876;8.962;2023-02-10T03:43:16;43.10;;;22.77;;
10471;SDS011;5283;48.876;8.962;2023-02-10T03:45:45;38.93;;;21.37;;
10471;SDS011;5283;48.876;8.962;2023-02-10T03:48:12;43.90;;;23.30;;
10471;SDS011;5283;48.876;8.962;2023-02-10T03:50:41;47.20;;;24.23;;
10471;SDS011;5283;48.876;8.962;2023-02-10T03:53:08;47.30;;;23.87;;
10471;SDS011;5283;48.876;8.962;2023-02-10T03:55:35;50.03;;;25.83;;
10471;SDS011;5283;48.876;8.962;2023-02-10T03:58:03;43.87;;;23.17;;
10471;SDS011;5283;48.876;8.962;2023-02-10T04:00:30;44.87;;;23.17;;
10471;SDS011;5283;48.876;8.962;2023-02-10T04:02:57;45.23;;;23.10;;
10471;SDS011;5283;48.876;8.962;2023-02-10T04:05:23;42.00;;;23.93;;
10471;SDS011;5283;48.876;8.962;2023-02-10T04:07:50;50.00;;;25.60;;
10471;SDS011;5283;48.876;8.962;2023-02-10T04:10:17;49.47;;;27.23;;
10471;SDS011;5283;48.876;8.962;2023-02-10T04:12:44;53.03;;;28.97;;
10471;SDS011;5283;48.876;8.962;2023-02-10T04:15:11;55.83;;;28.27;;
10471;SDS011;5283;48.876;8.962;2023-02-10T04:17:37;49.07;;;27.60;;
10471;SDS011;5283;48.876;8.962;2023-02-10T04:20:04;47.07;;;24.63;;
10471;SDS011;5283;48.876;8.962;2023-02-10T04:22:31;48.13;;;26.33;;
10471;SDS011;5283;48.876;8.962;2023-02-10T04:24:58;44.37;;;25.03;;
10471;SDS011;5283;48.876;8.962;2023-02-10T04:27:24;45.93;;;24.87;;
10471;SDS011;5283;48.876;8.962;2023-02-10T04:29:51;46.90;;;24.20;;
10471;SDS011;5283;48.876;8.962;2023-02-10T04:32:18;48.00;;;23.63;;
10471;SDS011;5283;48.876;8.962;2023-02-10T04:34:44;50.13;;;25.47;;
10471;SDS011;5283;48.876;8.962;2023-02-10T04:37:11;49.23;;;25.60;;
10471;SDS011;5283;48.876;8.962;2023-02-10T04:39:38;45.73;;;24.13;;
10471;SDS011;5283;48.876;8.962;2023-02-10T04:42:04;49.10;;;23.93;;
10471;SDS011;5283;48.876;8.962;2023-02-10T04:44:31;47.23;;;24.47;;
10471;SDS011;5283;48.876;8.962;2023-02-10T04:46:58;45.40;;;24.53;;
10471;SDS011;5283;48.876;8.962;2023-02-10T04:49:26;47.57;;;24.13;;
10471;SDS011;5283;48.876;8.962;2023-02-10T04:51:53;41.77;;;22.53;;
10471;SDS011;5283;48.876;8.962;2023-02-10T04:54:20;42.60;;;23.00;;
10471;SDS011;5283;48.876;8.962;2023-02-10T04:56:47;47.00;;;24.33;;
10471;SDS011;5283;48.876;8.962;2023-02-10T04:59:14;50.00;;;25.73;;
10471;SDS011;5283;48.876;8.962;2023-02-10T05:01:40;51.50;;;25.43;;
10471;SDS011;5283;48.876;8.962;2023-02-10T05:04:07;48.63;;;24.80;;
10471;SDS011;5283;48.876;8.962;2023-02-10T05:06:34;50.50;;;25.67;;
10471;SDS011;5283;48.876;8.962;2023-02-10T05:09:01;46.30;;;25.27;;
10471;SDS011;5283;48.876;8.962;2023-02-10T05:11:27;51.53;;;24.93;;
10471;SDS011;5283;48.876;8.962;2023-02-10T05:13:54;46.87;;;24.87;;
10471;SDS011;5283;48.876;8.962;2023-02-10T05:16:21;53.83;;;25.97;;
10471;SDS011;5283;48.876;8.962;2023-02-10T05:18:47;49.37;;;25.63;;
10471;SDS011;5283;48.876;8.962;2023-02-10T05:21:14;49.67;;;25.10;;
10471;SDS011;5283;48.876;8.962;2023-02-10T05:23:41;52.30;;;27.00;;
10471;SDS011;5283;48.876;8.962;2023-02-10T05:26:08;47.37;;;23.70;;
10471;SDS011;5283;48.876;8.962;2023-02-10T05:28:35;49.90;;;26.03;;
10471;SDS011;5283;48.876;8.962;2023-02-10T05:31:02;45.13;;;23.57;;
10471;SDS011;5283;48.876;8.962;2023-02-10T05:33:32;50.13;;;25.27;;
10471;SDS011;5283;48.876;8.962;2023-02-10T05:36:00;50.47;;;23.67;;
10471;SDS011;5283;48.876;8.962;2023-02-10T05:38:27;47.97;;;22.90;;
10471;SDS011;5283;48.876;8.962;2023-02-10T05:40:54;42.07;;;23.37;;
10471;SDS011;5283;48.876;8.962;2023-02-10T05:43:20;48.50;;;24.30;;
10471;SDS011;5283;48.876;8.962;2023-02-10T05:45:47;41.80;;;23.03;;
10471;SDS011;5283;48.876;8.962;2023-02-10T05:48:14;41.40;;;22.17;;
10471;SDS011;5283;48.876;8.962;2023-02-10T05:50:41;46.63;;;24.27;;
10471;SDS011;5283;48.876;8.962;2023-02-10T05:53:08;44.33;;;22.20;;
10471;SDS011;5283;48.876;8.962;2023-02-10T05:55:35;41.17;;;21.87;;
10471;SDS011;5283;48.876;8.962;2023-02-10T05:58:02;39.90;;;19.50;;
10471;SDS011;5283;48.876;8.962;2023-02-10T06:00:30;42.10;;;21.60;;
10471;SDS011;5283;48.876;8.962;2023-02-10T06:02:57;38.40;;;20.83;;
10471;SDS011;5283;48.876;8.962;2023-02-10T06:05:23;39.30;;;19.80;;
10471;SDS011;5283;48.876;8.962;2023-02-10T06:07:50;33.50;;;18.70;;
10471;SDS011;5283;48.876;8.962;2023-02-10T06:10:17;35.77;;;19.13;;
10471;SDS011;5283;48.876;8.962;2023-02-10T06:12:43;40.77;;;19.97;;
10471;SDS011;5283;48.876;8.962;2023-02-10T06:15:10;36.90;;;18.80;;
10471;SDS011;5283;48.876;8.962;2023-02-10T06:17:37;34.50;;;19.13;;
10471;SDS011;5283;48.876;8.962;2023-02-10T06:20:04;37.17;;;20.60;;
10471;SDS011;5283;48.876;8.962;2023-02-10T06:22:31;39.00;;;19.83;;
10471;SDS011;5283;48.876;8.962;2023-02-10T06:24:58;34.30;;;19.23;;
10471;SDS011;5283;48.876;8.962;2023-02-10T06:27:24;32.80;;;17.63;;
10471;SDS011;5283;48.876;8.962;2023-02-10T06:29:51;37.00;;;19.13;;
10471;SDS011;5283;48.876;8.962;2023-02-10T06:32:18;36.17;;;19.07;;
10471;SDS011;5283;48.876;8.962;2023-02-10T06:34:45;39.83;;;20.50;;
10471;SDS011;5283;48.876;8.962;2023-02-10T06:37:11;33.87;;;19.40;;
10471;SDS011;5283;48.876;8.962;2023-02-10T06:39:38;35.47;;;20.10;;
10471;SDS011;5283;48.876;8.962;2023-02-10T06:42:06;40.30;;;19.87;;
10471;SDS011;5283;48.876;8.962;2023-02-10T06:44:33;37.10;;;19.40;;
10471;SDS011;5283;48.876;8.962;2023-02-10T06:46:59;37.17;;;19.87;;
10471;SDS011;5283;48.876;8.962;2023-02-10T06:49:26;39.30;;;20.00;;
10471;SDS011;5283;48.876;8.962;2023-02-10T06:51:53;40.10;;;21.77;;
10471;SDS011;5283;48.876;8.962;2023-02-10T06:54:21;40.33;;;21.17;;
10471;SDS011;5283;48.876;8.962;2023-02-10T06:56:48;39.30;;;21.00;;
10471;SDS011;5283;48.876;8.962;2023-02-10T06:59:15;40.03;;;21.47;;
10471;SDS011;5283;48.876;8.962;2023-02-10T07:01:43;43.03;;;21.93;;
10471;SDS011;5283;48.876;8.962;2023-02-10T07:04:09;43.93;;;21.40;;
10471;SDS011;5283;48.876;8.962;2023-02-10T07:06:37;42.83;;;22.10;;
10471;SDS011;5283;48.876;8.962;2023-02-10T07:09:04;39.17;;;21.20;;
10471;SDS011;5283;48.876;8.962;2023-02-10T07:11:32;40.93;;;22.00;;
10471;SDS011;5283;48.876;8.962;2023-02-10T07:13:59;44.27;;;23.70;;
10471;SDS011;5283;48.876;8.962;2023-02-10T07:16:26;43.03;;;22.97;;
10471;SDS011;5283;48.876;8.962;2023-02-10T07:18:54;40.53;;;24.00;;
10471;SDS011;5283;48.876;8.962;2023-02-10T07:21:21;45.80;;;24.07;;
10471;SDS011;5283;48.876;8.962;2023-02-10T07:23:47;45.07;;;25.87;;
10471;SDS011;5283;48.876;8.962;2023-02-10T07:26:14;52.60;;;25.17;;
10471;SDS011;5283;48.876;8.962;2023-02-10T07:28:44;54.47;;;25.97;;
10471;SDS011;5283;48.876;8.962;2023-02-10T07:31:11;52.23;;;25.97;;
10471;SDS011;5283;48.876;8.962;2023-02-10T07:33:38;52.67;;;27.73;;
10471;SDS011;5283;48.876;8.962;2023-02-10T07:36:05;49.30;;;26.77;;
10471;SDS011;5283;48.876;8.962;2023-02-10T07:38:32;46.97;;;25.57;;
10471;SDS011;5283;48.876;8.962;2023-02-10T07:40:59;55.57;;;28.13;;
10471;SDS011;5283;48.876;8.962;2023-02-10T07:43:26;50.13;;;26.20;;
10471;SDS011;5283;48.876;8.962;2023-02-10T07:45:53;50.97;;;26.40;;
10471;SDS011;5283;48.876;8.962;2023-02-10T07:48:19;48.03;;;26.77;;
10471;SDS011;5283;48.876;8.962;2023-02-10T07:50:46;52.73;;;26.67;;
10471;SDS011;5283;48.876;8.962;2023-02-10T07:53:13;52.53;;;27.03;;
10471;SDS011;5283;48.876;8.962;2023-02-10T07:55:40;48.50;;;25.93;;
10471;SDS011;5283;48.876;8.962;2023-02-10T07:58:06;49.47;;;27.10;;
10471;SDS011;5283;48.876;8.962;2023-02-10T08:00:33;49.70;;;25.50;;
10471;SDS011;5283;48.876;8.962;2023-02-10T08:03:00;47.03;;;25.23;;
10471;SDS011;5283;48.876;8.962;2023-02-10T08:05:27;45.87;;;26.63;;
10471;SDS011;5283;48.876;8.962;2023-02-10T08:07:55;51.20;;;26.97;;
10471;SDS011;5283;48.876;8.962;2023-02-10T08:10:22;49.63;;;26.63;;
10471;SDS011;5283;48.876;8.962;2023-02-10T08:12:49;49.87;;;27.43;;
10471;SDS011;5283;48.876;8.962;2023-02-10T08:15:16;50.53;;;28.13;;
10471;SDS011;5283;48.876;8.962;2023-02-10T08:17:43;48.67;;;27.73;;
10471;SDS011;5283;48.876;8.962;2023-02-10T08:20:10;48.63;;;27.30;;
10471;SDS011;5283;48.876;8.962;2023-02-10T08:22:37;51.77;;;27.67;;
10471;SDS011;5283;48.876;8.962;2023-02-10T08:25:04;46.33;;;25.27;;
10471;SDS011;5283;48.876;8.962;2023-02-10T08:27:31;44.33;;;26.80;;
10471;SDS011;5283;48.876;8.962;2023-02-10T08:29:58;50.77;;;27.37;;
10471;SDS011;5283;48.876;8.962;2023-02-10T08:32:25;49.83;;;26.63;;
10471;SDS011;5283;48.876;8.962;2023-02-10T08:34:52;41.73;;;26.37;;
10471;SDS011;5283;48.876;8.962;2023-02-10T08:37:19;45.17;;;26.37;;
10471;SDS011;5283;48.876;8.962;2023-02-10T08:39:45;42.80;;;25.23;;
10471;SDS011;5283;48.876;8.962;2023-02-10T08:42:12;37.20;;;23.63;;
10471;SDS011;5283;48.876;8.962;2023-02-10T08:44:39;40.83;;;24.47;;
10471;SDS011;5283;48.876;8.962;2023-02-10T08:47:05;43.87;;;24.93;;
10471;SDS011;5283;48.876;8.962;2023-02-10T08:49:34;39.80;;;24.17;;
10471;SDS011;5283;48.876;8.962;2023-02-10T08:52:01;36.17;;;24.77;;
10471;SDS011;5283;48.876;8.962;2023-02-10T08:54:28;37.13;;;23.87;;
10471;SDS011;5283;48.876;8.962;2023-02-10T08:56:55;37.47;;;22.87;;
10471;SDS011;5283;48.876;8.962;2023-02-10T08:59:21;35.03;;;22.50;;
10471;SDS011;5283;48.876;8.962;2023-02-10T09:01:48;33.57;;;22.10;;
10471;SDS011;5283;48.876;8.962;2023-02-10T09:04:15;30.53;;;20.57;;
10471;SDS011;5283;48.876;8.962;2023-02-10T09:06:42;30.63;;;20.60;;
10471;SDS011;5283;48.876;8.962;2023-02-10T09:09:13;33.23;;;21.23;;
10471;SDS011;5283;48.876;8.962;2023-02-10T09:11:45;31.73;;;21.17;;
10471;SDS011;5283;48.876;8.962;2023-02-10T09:14:12;29.83;;;20.93;;
10471;SDS011;5283;48.876;8.962;2023-02-10T09:16:39;32.70;;;21.13;;
10471;SDS011;5283;48.876;8.962;2023-02-10T09:19:06;28.80;;;20.73;;
10471;SDS011;5283;48.876;8.962;2023-02-10T09:21:33;31.17;;;22.50;;
10471;SDS011;5283;48.876;8.962;2023-02-10T09:24:11;34.60;;;23.43;;
10471;SDS011;5283;48.876;8.962;2023-02-10T09:26:38;33.43;;;23.93;;
10471;SDS011;5283;48.876;8.962;2023-02-10T09:29:04;36.57;;;27.03;;
10471;SDS011;5283;48.876;8.962;2023-02-10T09:31:31;35.87;;;24.13;;
10471;SDS011;5283;48.876;8.962;2023-02-10T09:33:59;31.57;;;22.03;;
10471;SDS011;5283;48.876;8.962;2023-02-10T09:36:26;29.10;;;21.17;;
10471;SDS011;5283;48.876;8.962;2023-02-10T09:38:54;27.97;;;18.23;;
10471;SDS011;5283;48.876;8.962;2023-02-10T09:41:25;25.47;;;17.27;;
10471;SDS011;5283;48.876;8.962;2023-02-10T09:50:06;24.33;;;17.67;;
10471;SDS011;5283;48.876;8.962;2023-02-10T09:55:27;24.50;;;16.00;;
10471;SDS011;5283;48.876;8.962;2023-02-10T09:58:15;20.43;;;14.10;;
10471;SDS011;5283;48.876;8.962;2023-02-10T10:01:00;20.97;;;15.13;;
10471;SDS011;5283;48.876;8.962;2023-02-10T10:03:37;20.10;;;13.67;;
10471;SDS011;5283;48.876;8.962;2023-02-10T10:08:52;20.07;;;14.27;;
10471;SDS011;5283;48.876;8.962;2023-02-10T10:13:59;16.33;;;12.60;;
10471;SDS011;5283;48.876;8.962;2023-02-10T10:31:11;30.73;;;16.70;;
10471;SDS011;5283;48.876;8.962;2023-02-10T10:33:51;27.20;;;18.80;;
10471;SDS011;5283;48.876;8.962;2023-02-10T10:36:31;26.97;;;18.77;;
10471;SDS011;5283;48.876;8.962;2023-02-10T10:39:20;30.37;;;19.57;;
10471;SDS011;5283;48.876;8.962;2023-02-10T10:42:20;32.07;;;18.63;;
10471;SDS011;5283;48.876;8.962;2023-02-10T10:45:05;26.03;;;18.80;;
10471;SDS011;5283;48.876;8.962;2023-02-10T10:50:27;25.07;;;18.10;;
10471;SDS011;5283;48.876;8.962;2023-02-10T10:52:54;25.47;;;17.27;;
10471;SDS011;5283;48.876;8.962;2023-02-10T10:55:40;27.27;;;17.00;;
10471;SDS011;5283;48.876;8.962;2023-02-10T11:00:58;27.73;;;17.30;;
10471;SDS011;5283;48.876;8.962;2023-02-10T11:03:27;22.77;;;15.73;;
10471;SDS011;5283;48.876;8.962;2023-02-10T11:06:08;25.63;;;17.40;;
10471;SDS011;5283;48.876;8.962;2023-02-10T11:08:43;22.07;;;16.00;;
10471;SDS011;5283;48.876;8.962;2023-02-10T11:11:12;19.93;;;15.60;;
10471;SDS011;5283;48.876;8.962;2023-02-10T11:13:56;21.50;;;16.23;;
10471;SDS011;5283;48.876;8.962;2023-02-10T11:16:24;24.90;;;16.07;;
10471;SDS011;5283;48.876;8.962;2023-02-10T11:18:57;25.80;;;16.70;;
10471;SDS011;5283;48.876;8.962;2023-02-10T11:21:39;24.40;;;17.27;;
10471;SDS011;5283;48.876;8.962;2023-02-10T11:24:26;22.67;;;16.73;;
10471;SDS011;5283;48.876;8.962;2023-02-10T11:26:56;24.83;;;16.07;;
10471;SDS011;5283;48.876;8.962;2023-02-10T11:29:32;20.97;;;16.03;;
10471;SDS011;5283;48.876;8.962;2023-02-10T11:32:01;24.57;;;17.10;;
10471;SDS011;5283;48.876;8.962;2023-02-10T11:34:38;23.30;;;15.63;;
10471;SDS011;5283;48.876;8.962;2023-02-10T11:37:18;23.80;;;15.67;;
10471;SDS011;5283;48.876;8.962;2023-02-10T11:39:50;21.63;;;15.20;;
10471;SDS011;5283;48.876;8.962;2023-02-10T11:42:21;20.87;;;15.33;;
10471;SDS011;5283;48.876;8.962;2023-02-10T11:47:36;23.70;;;15.70;;
10471;SDS011;5283;48.876;8.962;2023-02-10T11:50:04;25.13;;;17.87;;
10471;SDS011;5283;48.876;8.962;2023-02-10T11:52:44;22.37;;;15.83;;
10471;SDS011;5283;48.876;8.962;2023-02-10T11:55:14;20.90;;;15.50;;
10471;SDS011;5283;48.876;8.962;2023-02-10T11:57:49;22.77;;;15.77;;
10471;SDS011;5283;48.876;8.962;2023-02-10T12:06:15;21.97;;;15.70;;
10471;SDS011;5283;48.876;8.962;2023-02-10T12:20:31;22.43;;;16.47;;
10471;SDS011;5283;48.876;8.962;2023-02-10T12:23:25;23.47;;;16.87;;
10471;SDS011;5283;48.876;8.962;2023-02-10T12:26:18;23.57;;;15.97;;
10471;SDS011;5283;48.876;8.962;2023-02-10T12:31:54;22.27;;;15.90;;
10471;SDS011;5283;48.876;8.962;2023-02-10T12:43:06;22.00;;;16.73;;
10471;SDS011;5283;48.876;8.962;2023-02-10T12:45:54;24.37;;;17.50;;
10471;SDS011;5283;48.876;8.962;2023-02-10T12:48:41;23.27;;;16.70;;
10471;SDS011;5283;48.876;8.962;2023-02-10T12:51:43;24.30;;;17.00;;
10471;SDS011;5283;48.876;8.962;2023-02-10T12:54:17;22.03;;;16.30;;
10471;SDS011;5283;48.876;8.962;2023-02-10T12:57:22;22.27;;;16.77;;
10471;SDS011;5283;48.876;8.962;2023-02-10T13:02:23;21.90;;;16.47;;
10471;SDS011;5283;48.876;8.962;2023-02-10T13:05:00;25.20;;;16.27;;
10471;SDS011;5283;48.876;8.962;2023-02-10T13:07:45;24.97;;;17.03;;
10471;SDS011;5283;48.876;8.962;2023-02-10T13:10:18;22.33;;;16.57;;
10471;SDS011;5283;48.876;8.962;2023-02-10T13:12:53;23.57;;;16.97;;
10471;SDS011;5283;48.876;8.962;2023-02-10T13:17:56;24.90;;;16.63;;
10471;SDS011;5283;48.876;8.962;2023-02-10T13:20:45;27.47;;;17.33;;
10471;SDS011;5283;48.876;8.962;2023-02-10T13:23:35;22.00;;;16.10;;
10471;SDS011;5283;48.876;8.962;2023-02-10T13:29:04;21.70;;;15.13;;
10471;SDS011;5283;48.876;8.962;2023-02-10T13:34:28;21.40;;;15.97;;
10471;SDS011;5283;48.876;8.962;2023-02-10T13:36:59;21.93;;;15.77;;
10471;SDS011;5283;48.876;8.962;2023-02-10T13:39:30;22.13;;;16.10;;
10471;SDS011;5283;48.876;8.962;2023-02-10T13:42:07;23.70;;;17.20;;
10471;SDS011;5283;48.876;8.962;2023-02-10T13:44:43;25.23;;;15.80;;
10471;SDS011;5283;48.876;8.962;2023-02-10T13:47:18;22.50;;;16.20;;
10471;SDS011;5283;48.876;8.962;2023-02-10T13:52:23;21.20;;;16.43;;
10471;SDS011;5283;48.876;8.962;2023-02-10T13:54:54;26.27;;;16.10;;
10471;SDS011;5283;48.876;8.962;2023-02-10T13:58:16;22.80;;;16.30;;
10471;SDS011;5283;48.876;8.962;2023-02-10T14:00:19;20.97;;;15.70;;
10471;SDS011;5283;48.876;8.962;2023-02-10T14:08:38;19.67;;;15.07;;
10471;SDS011;5283;48.876;8.962;2023-02-10T14:11:26;19.00;;;14.47;;
10471;SDS011;5283;48.876;8.962;2023-02-10T14:14:17;22.43;;;15.53;;
10471;SDS011;5283;48.876;8.962;2023-02-10T14:16:46;19.43;;;14.33;;
10471;SDS011;5283;48.876;8.962;2023-02-10T14:19:20;19.97;;;15.10;;
10471;SDS011;5283;48.876;8.962;2023-02-10T14:21:50;22.73;;;15.73;;
10471;SDS011;5283;48.876;8.962;2023-02-10T14:24:22;20.83;;;15.30;;
10471;SDS011;5283;48.876;8.962;2023-02-10T14:26:57;18.90;;;15.00;;
10471;SDS011;5283;48.876;8.962;2023-02-10T14:29:28;23.00;;;16.50;;
10471;SDS011;5283;48.876;8.962;2023-02-10T14:31:58;20.60;;;16.17;;
10471;SDS011;5283;48.876;8.962;2023-02-10T14:34:29;20.13;;;15.63;;
10471;SDS011;5283;48.876;8.962;2023-02-10T14:39:25;20.10;;;14.97;;
10471;SDS011;5283;48.876;8.962;2023-02-10T14:41:59;18.27;;;14.67;;
10471;SDS011;5283;48.876;8.962;2023-02-10T14:44:34;18.33;;;14.83;;
10471;SDS011;5283;48.876;8.962;2023-02-10T14:47:06;18.80;;;13.97;;
10471;SDS011;5283;48.876;8.962;2023-02-10T14:49:51;20.07;;;15.40;;
10471;SDS011;5283;48.876;8.962;2023-02-10T14:52:26;20.77;;;15.63;;
10471;SDS011;5283;48.876;8.962;2023-02-10T14:55:21;19.00;;;15.07;;
10471;SDS011;5283;48.876;8.962;2023-02-10T14:57:49;19.70;;;15.17;;
10471;SDS011;5283;48.876;8.962;2023-02-10T15:00:16;18.03;;;15.07;;
10471;SDS011;5283;48.876;8.962;2023-02-10T15:02:47;20.20;;;13.87;;
10471;SDS011;5283;48.876;8.962;2023-02-10T15:05:18;18.60;;;14.23;;
10471;SDS011;5283;48.876;8.962;2023-02-10T15:07:47;16.50;;;13.93;;
10471;SDS011;5283;48.876;8.962;2023-02-10T15:10:30;19.13;;;14.60;;
10471;SDS011;5283;48.876;8.962;2023-02-10T15:13:01;18.37;;;14.23;;
10471;SDS011;5283;48.876;8.962;2023-02-10T15:15:32;17.90;;;13.30;;
10471;SDS011;5283;48.876;8.962;2023-02-10T15:18:12;16.93;;;13.30;;
10471;SDS011;5283;48.876;8.962;2023-02-10T15:20:49;18.10;;;13.57;;
10471;SDS011;5283;48.876;8.962;2023-02-10T15:23:18;16.90;;;13.30;;
10471;SDS011;5283;48.876;8.962;2023-02-10T15:28:59;17.77;;;13.23;;
10471;SDS011;5283;48.876;8.962;2023-02-10T15:31:35;17.33;;;13.20;;
10471;SDS011;5283;48.876;8.962;2023-02-10T15:34:03;16.63;;;12.80;;
10471;SDS011;5283;48.876;8.962;2023-02-10T15:36:54;19.20;;;13.63;;
10471;SDS011;5283;48.876;8.962;2023-02-10T15:39:27;17.07;;;13.10;;
10471;SDS011;5283;48.876;8.962;2023-02-10T15:41:58;17.73;;;14.23;;
10471;SDS011;5283;48.876;8.962;2023-02-10T15:44:29;18.93;;;14.13;;
10471;SDS011;5283;48.876;8.962;2023-02-10T15:49:55;21.27;;;14.13;;
10471;SDS011;5283;48.876;8.962;2023-02-10T15:52:25;17.73;;;13.23;;
10471;SDS011;5283;48.876;8.962;2023-02-10T15:54:56;18.20;;;13.70;;
10471;SDS011;5283;48.876;8.962;2023-02-10T15:57:26;18.17;;;13.40;;
10471;SDS011;5283;48.876;8.962;2023-02-10T15:59:53;17.13;;;12.63;;
10471;SDS011;5283;48.876;8.962;2023-02-10T16:02:21;18.07;;;13.17;;
10471;SDS011;5283;48.876;8.962;2023-02-10T16:04:51;18.73;;;13.53;;
10471;SDS011;5283;48.876;8.962;2023-02-10T16:07:22;20.13;;;13.47;;
10471;SDS011;5283;48.876;8.962;2023-02-10T16:09:52;19.03;;;13.53;;
10471;SDS011;5283;48.876;8.962;2023-02-10T16:12:20;17.40;;;12.80;;
10471;SDS011;5283;48.876;8.962;2023-02-10T16:14:48;22.77;;;14.43;;
10471;SDS011;5283;48.876;8.962;2023-02-10T16:17:20;20.60;;;14.40;;
10471;SDS011;5283;48.876;8.962;2023-02-10T16:19:50;20.23;;;14.57;;
10471;SDS011;5283;48.876;8.962;2023-02-10T16:22:17;17.97;;;13.33;;
10471;SDS011;5283;48.876;8.962;2023-02-10T16:24:44;19.00;;;13.63;;
10471;SDS011;5283;48.876;8.962;2023-02-10T16:27:11;19.97;;;13.77;;
10471;SDS011;5283;48.876;8.962;2023-02-10T16:29:38;19.87;;;14.17;;
10471;SDS011;5283;48.876;8.962;2023-02-10T16:32:05;19.70;;;13.10;;
10471;SDS011;5283;48.876;8.962;2023-02-10T16:34:32;19.43;;;13.60;;
10471;SDS011;5283;48.876;8.962;2023-02-10T16:37:00;20.47;;;13.30;;
10471;SDS011;5283;48.876;8.962;2023-02-10T16:39:26;19.30;;;13.47;;
10471;SDS011;5283;48.876;8.962;2023-02-10T16:41:54;19.87;;;13.77;;
10471;SDS011;5283;48.876;8.962;2023-02-10T16:44:21;19.87;;;13.93;;
10471;SDS011;5283;48.876;8.962;2023-02-10T16:46:49;18.77;;;12.93;;
10471;SDS011;5283;48.876;8.962;2023-02-10T16:49:16;19.80;;;13.30;;